createdAt,value
2019-05-01T00:01:53.362Z,343
2019-05-01T00:06:55.798Z,358
2019-05-01T00:11:58.374Z,386
2019-05-01T00:17:00.728Z,319
2019-05-01T00:22:03.596Z,317
2019-05-01T00:27:05.707Z,323
2019-05-01T00:32:08.125Z,331
2019-05-01T00:37:10.622Z,306
2019-05-01T00:42:13.078Z,319
2019-05-01T00:47:15.570Z,314
2019-05-01T00:52:18.320Z,343
2019-05-01T00:57:20.493Z,317
2019-05-01T01:02:22.968Z,309
2019-05-01T01:07:25.370Z,333
2019-05-01T01:12:28.066Z,299
2019-05-01T01:17:30.274Z,328
2019-05-01T01:22:33.132Z,319
2019-05-01T01:27:35.318Z,330
2019-05-01T01:32:37.664Z,339
2019-05-01T01:37:40.140Z,354
2019-05-01T01:42:42.569Z,326
2019-05-01T01:47:45.052Z,333
2019-05-01T01:52:47.859Z,343
2019-05-01T01:57:50.013Z,347
2019-05-01T02:02:52.443Z,338
2019-05-01T02:07:55.393Z,348
2019-05-01T02:12:57.507Z,335
2019-05-01T02:17:59.852Z,329
2019-05-01T02:23:02.647Z,334
2019-05-01T02:28:04.761Z,329
2019-05-01T02:33:07.201Z,333
2019-05-01T02:38:09.734Z,309
2019-05-01T02:43:12.273Z,296
2019-05-01T02:48:14.757Z,309
2019-05-01T02:53:17.399Z,305
2019-05-01T02:58:19.557Z,292
2019-05-01T03:03:22.010Z,288
2019-05-01T03:08:24.457Z,282
2019-05-01T03:13:26.908Z,273
2019-05-01T03:18:29.398Z,283
2019-05-01T03:23:32.192Z,324
2019-05-01T03:28:34.353Z,298
2019-05-01T03:33:36.838Z,276
2019-05-01T03:38:39.261Z,295
2019-05-01T03:43:41.707Z,287
2019-05-01T03:48:44.215Z,313
2019-05-01T03:53:47.179Z,304
2019-05-01T03:58:49.114Z,287
2019-05-01T04:03:51.630Z,258
2019-05-01T04:08:54.025Z,255
2019-05-01T04:13:56.508Z,270
2019-05-01T04:18:58.934Z,287
2019-05-01T04:24:01.785Z,295
2019-05-01T04:29:03.958Z,295
2019-05-01T04:34:06.411Z,292
2019-05-01T04:39:08.860Z,275
2019-05-01T04:44:11.231Z,277
2019-05-01T04:49:13.753Z,266
2019-05-01T04:54:16.153Z,257
2019-05-01T04:59:18.929Z,255
2019-05-01T05:04:21.064Z,254
2019-05-01T05:09:23.513Z,252
2019-05-01T05:14:26.119Z,265
2019-05-01T05:19:28.420Z,245
2019-05-01T05:24:31.290Z,246
2019-05-01T05:29:33.354Z,255
2019-05-01T05:34:35.882Z,240
2019-05-01T05:39:38.280Z,228
2019-05-01T05:44:40.771Z,200
2019-05-01T05:49:43.192Z,198
2019-05-01T05:54:46.036Z,192
2019-05-01T05:59:48.083Z,177
2019-05-01T06:04:50.794Z,175
2019-05-01T06:09:53.035Z,60
2019-05-01T06:14:55.456Z,56
2019-05-01T06:19:57.994Z,53
2019-05-01T06:25:00.739Z,49
2019-05-01T06:30:06.442Z,47
2019-05-01T06:35:05.329Z,41
2019-05-01T06:40:07.782Z,44
2019-05-01T06:45:12.972Z,33
2019-05-01T06:50:12.701Z,32
2019-05-01T06:55:15.494Z,32
2019-05-01T07:00:17.743Z,30
2019-05-01T07:05:20.030Z,32
2019-05-01T07:10:30.147Z,30
2019-05-01T07:15:26.682Z,31
2019-05-01T07:20:27.436Z,32
2019-05-01T07:25:34.790Z,30
2019-05-01T07:30:32.400Z,31
2019-05-01T07:35:36.652Z,28
2019-05-01T07:40:37.272Z,30
2019-05-01T07:45:43.448Z,29
2019-05-01T07:50:42.210Z,29
2019-05-01T07:55:44.666Z,31
2019-05-01T08:00:47.106Z,35
2019-05-01T08:05:49.602Z,30
2019-05-01T08:10:52.075Z,28
2019-05-01T08:15:54.438Z,29
2019-05-01T08:20:56.897Z,28
2019-05-01T08:26:03.841Z,27
2019-05-01T08:31:01.907Z,27
2019-05-01T08:36:06.692Z,23
2019-05-01T08:41:06.796Z,19
2019-05-01T08:46:11.750Z,17
2019-05-01T08:51:11.903Z,19
2019-05-01T08:56:16.891Z,19
2019-05-01T09:01:16.600Z,20
2019-05-01T09:06:19.208Z,19
2019-05-01T09:11:21.683Z,19
2019-05-01T09:16:28.181Z,19
2019-05-01T09:21:26.521Z,19
2019-05-01T09:26:29.232Z,18
2019-05-01T09:31:33.833Z,19
2019-05-01T09:36:33.817Z,18
2019-05-01T09:41:38.156Z,19
2019-05-01T09:46:38.749Z,19
2019-05-01T09:51:42.411Z,19
2019-05-01T09:56:43.885Z,18
2019-05-01T10:01:46.631Z,19
2019-05-01T10:06:52.181Z,21
2019-05-01T10:11:51.083Z,19
2019-05-01T10:16:53.521Z,18
2019-05-01T10:21:57.804Z,15
2019-05-01T10:27:00.062Z,13
2019-05-01T10:32:00.873Z,17
2019-05-01T10:37:03.409Z,14
2019-05-01T10:42:06.240Z,13
2019-05-01T10:47:08.265Z,14
2019-05-01T10:52:14.112Z,14
2019-05-01T10:57:13.156Z,15
2019-05-01T11:02:15.757Z,15
2019-05-01T11:07:18.106Z,14
2019-05-01T11:12:20.606Z,17
2019-05-01T11:17:22.987Z,17
2019-05-01T11:22:25.462Z,18
2019-05-01T11:27:27.982Z,18
2019-05-01T11:32:30.454Z,17
2019-05-01T11:37:32.864Z,16
2019-05-01T11:42:35.357Z,13
2019-05-01T11:47:37.800Z,7
2019-05-01T11:52:40.245Z,9
2019-05-01T11:57:43.070Z,8
2019-05-01T12:02:45.180Z,10
2019-05-01T12:07:47.579Z,12
2019-05-01T12:12:50.116Z,12
2019-05-01T12:17:52.537Z,13
2019-05-01T12:22:55.112Z,11
2019-05-01T12:27:57.872Z,14
2019-05-01T12:32:59.980Z,11
2019-05-01T12:38:02.421Z,11
2019-05-01T12:43:04.887Z,11
2019-05-01T12:48:07.540Z,10
2019-05-01T12:53:09.755Z,10
2019-05-01T12:58:12.300Z,12
2019-05-01T13:03:14.689Z,10
2019-05-01T13:08:17.126Z,11
2019-05-01T13:13:19.594Z,12
2019-05-01T13:18:22.028Z,13
2019-05-01T13:23:24.498Z,12
2019-05-01T13:28:27.276Z,13
2019-05-01T13:33:29.409Z,12
2019-05-01T13:38:32.000Z,12
2019-05-01T13:43:34.499Z,12
2019-05-01T13:48:36.891Z,10
2019-05-01T13:53:39.267Z,13
2019-05-01T13:58:42.056Z,12
2019-05-01T14:03:44.315Z,12
2019-05-01T14:08:46.716Z,13
2019-05-01T14:13:49.115Z,14
2019-05-01T14:18:51.877Z,15
2019-05-01T14:23:54.002Z,15
2019-05-01T14:28:56.878Z,14
2019-05-01T14:33:58.936Z,15
2019-05-01T14:39:01.425Z,14
2019-05-01T14:44:04.084Z,14
2019-05-01T14:49:06.351Z,14
2019-05-01T14:54:08.742Z,14
2019-05-01T14:59:11.569Z,13
2019-05-01T15:04:13.661Z,13
2019-05-01T15:09:16.338Z,14
2019-05-01T15:14:18.926Z,13
2019-05-01T15:19:21.057Z,14
2019-05-01T15:24:23.517Z,14
2019-05-01T15:29:25.976Z,13
2019-05-01T15:34:28.408Z,14
2019-05-01T15:39:30.980Z,14
2019-05-01T15:44:33.341Z,13
2019-05-01T15:49:35.897Z,15
2019-05-01T15:54:38.520Z,14
2019-05-01T15:59:40.777Z,14
2019-05-01T16:04:43.173Z,14
2019-05-01T16:09:45.752Z,14
2019-05-01T16:14:48.147Z,14
2019-05-01T16:19:50.532Z,14
2019-05-01T16:24:53.091Z,13
2019-05-01T16:29:55.817Z,14
2019-05-01T16:34:57.980Z,14
2019-05-01T16:40:00.392Z,13
2019-05-01T16:45:02.919Z,14
2019-05-01T16:50:05.404Z,13
2019-05-01T16:55:07.778Z,13
2019-05-01T17:00:10.386Z,14
2019-05-01T17:05:12.666Z,13
2019-05-01T17:10:15.141Z,14
2019-05-01T17:15:17.890Z,14
2019-05-01T17:20:20.187Z,13
2019-05-01T17:25:22.715Z,13
2019-05-01T17:30:25.323Z,14
2019-05-01T17:35:27.541Z,14
2019-05-01T17:40:29.904Z,14
2019-05-01T17:45:34.757Z,16
2019-05-01T17:50:34.854Z,16
2019-05-01T17:55:37.302Z,20
2019-05-01T18:00:40.088Z,17
2019-05-01T18:05:42.200Z,20
2019-05-01T18:10:44.809Z,20
2019-05-01T18:15:47.177Z,18
2019-05-01T18:20:49.794Z,18
2019-05-01T18:25:52.599Z,17
2019-05-01T18:30:56.374Z,19
2019-05-01T18:35:57.036Z,27
2019-05-01T18:40:59.383Z,19
2019-05-01T18:46:01.882Z,19
2019-05-01T18:51:04.395Z,18
2019-05-01T18:56:07.682Z,18
2019-05-01T19:01:10.779Z,19
2019-05-01T19:06:11.743Z,19
2019-05-01T19:11:14.165Z,21
2019-05-01T19:16:16.705Z,19
2019-05-01T19:21:19.126Z,18
2019-05-01T19:26:22.716Z,20
2019-05-01T19:31:24.277Z,18
2019-05-01T19:36:26.585Z,19
2019-05-01T19:41:29.155Z,17
2019-05-01T19:46:31.467Z,18
2019-05-01T19:51:33.776Z,17
2019-05-01T19:56:36.388Z,19
2019-05-01T20:01:44.049Z,18
2019-05-01T20:06:41.176Z,19
2019-05-01T20:11:43.791Z,20
2019-05-01T20:16:46.145Z,18
2019-05-01T20:21:48.551Z,19
2019-05-01T20:26:51.008Z,19
2019-05-01T20:31:53.499Z,18
2019-05-01T20:36:55.895Z,19
2019-05-01T20:41:58.439Z,17
2019-05-01T20:47:02.470Z,19
2019-05-01T20:52:03.370Z,19
2019-05-01T20:57:05.905Z,18
2019-05-01T21:02:09.202Z,18
2019-05-01T21:07:15.386Z,19
2019-05-01T21:12:13.160Z,20
2019-05-01T21:17:15.772Z,19
2019-05-01T21:22:18.072Z,19
2019-05-01T21:27:20.502Z,20
2019-05-01T21:32:27.077Z,21
2019-05-01T21:37:25.429Z,21
2019-05-01T21:42:27.836Z,20
2019-05-01T21:47:30.393Z,20
2019-05-01T21:52:33.238Z,22
2019-05-01T21:57:38.466Z,19
2019-05-01T22:02:41.489Z,20
2019-05-01T22:07:40.357Z,20
2019-05-01T22:12:43.812Z,20
2019-05-01T22:17:45.132Z,19
2019-05-01T22:22:47.523Z,22
2019-05-01T22:27:49.993Z,22
2019-05-01T22:32:52.830Z,19
2019-05-01T22:37:54.927Z,22
2019-05-01T22:42:57.326Z,22
2019-05-01T22:47:59.972Z,22
2019-05-01T22:53:02.318Z,23
2019-05-01T22:58:04.883Z,24
2019-05-01T23:03:07.347Z,21
2019-05-01T23:08:09.605Z,21
2019-05-01T23:13:12.123Z,22
2019-05-01T23:18:15.328Z,21
2019-05-01T23:23:17.150Z,23
2019-05-01T23:28:19.453Z,21
2019-05-01T23:33:22.189Z,21
2019-05-01T23:38:24.425Z,22
2019-05-01T23:43:27.747Z,23
2019-05-01T23:48:29.395Z,23
2019-05-01T23:53:31.746Z,24
2019-05-01T23:58:34.286Z,24
